• Join FlightAware (Why Join?)
  • Login
  • US Flag 
 
07:31PM EST


 

Airport Tracker/Info


-or-


 

Live Flight TrackerFlight Track Log ✈ UAL6136 ✈ 20-Apr-2013 ✈ KPIA - KORD

Flight Track Log - Related Links

Times and Time Zones

All times are in EDT time to prevent confusion due to time zone crossing. See the UAL6136 flight status page for this flight to view local times or setup timezone preferences in your user account.

Time Position Orientation Groundspeed Altitude Reporting Facility
EDT Latitude Longitude Course Direction KTS MPH feet Rate Location/Type
10:25AM 40.6883 -89.7417 North 166 191 2,700  Level Chicago Center
10:26AM 40.7408 -89.7536 350° North 238 274 4,200 2,460 Climbing Chicago Center
10:27AM 40.8836 -89.6366 North  Level FlightAware Approximate
10:27AM 40.8208 -89.7214 17° North 250 288 7,800  Level Chicago Center
10:28AM 40.9616 -89.6221 11° North  Level FlightAware Approximate
10:28AM 40.8881 -89.6956 16° North 252 290 9,900  Level Chicago Center
10:29AM 41.0386 -89.6000 North  Level FlightAware Approximate
10:29AM 40.9644 -89.6656 17° North 276 318 11,400  Level Chicago Center
10:30AM 41.1170 -89.5888 North  Level FlightAware Approximate
10:30AM 41.0517 -89.6233 20° North 326 375 12,600  Level Chicago Center
10:31AM 41.1156 -89.5139 52° Northeast 376 433 13,100 240 Climbing Chicago Center
10:32AM 41.1758 -89.3911 57° Northeast 391 450 13,100 -480 Level Chicago Center
10:33AM 41.2361 -89.2700 56° Northeast 393 452 12,200 -1,020 Descending Chicago Center
10:34AM 41.3039 -89.1306 57° Northeast 376 433 11,100 -540 Descending Chicago Center
10:35AM 41.3606 -89.0147 57° Northeast 374 430 11,100  Level Chicago Center
10:36AM 41.4183 -88.9008 56° Northeast 373 429 11,100 -60 Level Chicago Center
10:37AM 41.4742 -88.7847 57° Northeast 372 428 11,000 -60 Descending Chicago Center
10:38AM 41.5283 -88.6681 58° Northeast 372 428 11,000  Level Chicago Center
10:39AM 41.5806 -88.5439 61° Northeast 381 438 11,100  Climbing Chicago Center
10:40AM 41.6622 -88.4194 49° Northeast 368 423 11,000 -60 Descending Chicago Center
10:41AM 41.7292 -88.3136 50° Northeast 370 426 11,000 -180 Level Chicago Center
10:43AM 41.7925 -88.2122 50° Northeast 358 412 10,700 -840 Descending Chicago Center
10:44AM 41.8278 -88.1169 64° Northeast 303 349 9,300 -1,500 Descending Chicago Center
10:45AM 41.8531 -88.0150 72° East 291 335 7,600 -1,140 Descending Chicago Center
10:46AM 41.8775 -87.9172 71° East 282 325 7,000 -300 Descending Chicago Center
10:47AM 41.8978 -87.8286 73° East 261 300 7,000 -780 Level Chicago Center
10:47AM 41.9000 -87.7500 88° East 239 275 5,700 -1,680 Descending Chicago TRACON
10:48AM 41.9333 -87.7000 48° Northeast 212 244 4,100 -1,500 Descending Chicago TRACON